Siteam Voyager — 9VCN3 — position and weather

sailwx.info

Track history (hours):
 
Tides and Currents Weather Stations Pressure Air Temp Water Temp Dewpoint Dewpoint Depression Visibility Wind Speed Wind Dir Waves Ship Positions

Siteam Voyager

Last reported at 2014-Jul-14 02:32 UTC. Time now 2014-Jul-22 19:32 UTC.
Position N 33°53' E 134°58'.
Warning: this ship's position is 8 days out of date.

Length 183 m; draft 12.1 m.

Type: Ship (hazmat cat C). MMSI: 565812000.

Date/timePositionNaut miles runAvg speedWind from/ knotsBaromVisibWave heightAir tempDewpointWater temp
2014-Jul-14 02:32N 33°53' E 134°58'1212.6
2014-Jul-14 01:33N 34°05' E 134°58'1111.1
2014-Jul-14 00:33N 34°16' E 134°58'1111.1
2014-Jul-13 23:33N 34°26' E 135°04'1312.7
2014-Jul-13 22:33N 34°33' E 135°18'6 5.5
2014-Jul-13 21:31N 34°34' E 135°24'0 0.0
2014-Jul-13 20:31N 34°34' E 135°24'0 0.0
2014-Jul-13 19:25N 34°34' E 135°24'0 0.0
2014-Jul-13 18:31N 34°34' E 135°24'0 0.0
2014-Jul-13 17:31N 34°34' E 135°24'0 0.0
2014-Jul-13 16:25N 34°34' E 135°24'0 0.0
2014-Jul-13 15:31N 34°34' E 135°24'0 0.0
2014-Jul-13 14:25N 34°34' E 135°24'0 0.0
2014-Jul-13 13:31N 34°34' E 135°24'0 0.0
2014-Jul-13 12:31N 34°34' E 135°24'0 0.0
2014-Jul-13 11:31N 34°34' E 135°24'0 0.0
2014-Jul-13 10:25N 34°34' E 135°24'0 0.0
2014-Jul-13 09:31N 34°34' E 135°24'0 0.0
2014-Jul-13 08:31N 34°34' E 135°24'0 0.0
2014-Jul-13 07:31N 34°34' E 135°24'0 0.0
2014-Jul-13 06:31N 34°34' E 135°24'0 0.0
2014-Jul-13 05:31N 34°34' E 135°24'0 0.0
2014-Jul-13 04:25N 34°34' E 135°24'0 0.0
2014-Jul-13 03:25N 34°34' E 135°24'0 0.0
2014-Jul-13 02:31N 34°34' E 135°24'0 0.0
2014-Jul-13 01:31N 34°34' E 135°24'0 0.0
2014-Jul-13 00:25N 34°34' E 135°24'0 0.0
2014-Jul-12 23:31N 34°34' E 135°24'0 0.0
2014-Jul-12 22:25N 34°34' E 135°24'0 0.0
2014-Jul-12 21:31N 34°34' E 135°24'0 0.0
2014-Jul-12 20:31N 34°34' E 135°24'0 0.0
2014-Jul-12 19:31N 34°34' E 135°24'0 0.0
2014-Jul-12 18:31N 34°34' E 135°24'0 0.0
2014-Jul-12 17:31N 34°34' E 135°24'0 0.0
2014-Jul-12 16:31N 34°34' E 135°24'0 0.0
2014-Jul-12 15:19N 34°34' E 135°24'0 0.0
2014-Jul-12 14:13N 34°34' E 135°24'0 0.0
2014-Jul-12 12:31N 34°34' E 135°24'0 0.0
2014-Jul-12 11:25N 34°34' E 135°24'0 0.0
2014-Jul-12 10:25N 34°34' E 135°24'0 0.0
2014-Jul-12 09:25N 34°34' E 135°24'0 0.0
2014-Jul-12 08:13N 34°34' E 135°24'0 0.0
2014-Jul-12 07:13N 34°34' E 135°24'0 0.0
2014-Jul-12 06:25N 34°34' E 135°24'0 0.0
2014-Jul-12 05:31N 34°34' E 135°24'0 0.0
2014-Jul-12 04:31N 34°34' E 135°24'3 3.5
2014-Jul-12 03:34N 34°34' E 135°20'0 0.2
2014-Jul-12 02:10N 34°34' E 135°20'0 0.1
2014-Jul-12 01:28N 34°34' E 135°20'0 0.0
2014-Jul-12 00:22N 34°34' E 135°20'0 0.0
2014-Jul-11 23:22N 34°34' E 135°20'0 0.0
2014-Jul-11 22:10N 34°34' E 135°20'0 0.0
2014-Jul-11 21:16N 34°34' E 135°20'0 0.0
2014-Jul-11 20:28N 34°34' E 135°20'0 0.0
2014-Jul-11 19:28N 34°34' E 135°20'0 0.0
2014-Jul-11 18:28N 34°34' E 135°20'0 0.2
2014-Jul-11 17:31N 34°34' E 135°20'8 8.8
2014-Jul-11 16:33N 34°29' E 135°12'1313.0
2014-Jul-11 15:33N 34°19' E 135°01'1211.7
2014-Jul-11 14:33N 34°08' E 134°60'  
2014-Jul-07 08:10N 35°07' E 129°21'  
Track history (hours):
 
Tides and Currents Weather Stations Pressure Air Temp Water Temp Dewpoint Dewpoint Depression Visibility Wind Speed Wind Dir Waves Ship Positions

Siteam Voyager

Last reported at 2014-Jul-14 02:32 UTC. Time now 2014-Jul-22 19:32 UTC.
Position N 33°53' E 134°58'.
Warning: this ship's position is 8 days out of date.

Length 183 m; draft 12.1 m.

Type: Ship (hazmat cat C). MMSI: 565812000.

Date/timePositionNaut miles runAvg speedWind from/ knotsBaromVisibWave heightAir tempDewpointWater temp
2014-Jul-14 02:32N 33°53' E 134°58'1212.6
2014-Jul-14 01:33N 34°05' E 134°58'1111.1
2014-Jul-14 00:33N 34°16' E 134°58'1111.1
2014-Jul-13 23:33N 34°26' E 135°04'1312.7
2014-Jul-13 22:33N 34°33' E 135°18'6 5.5
2014-Jul-13 21:31N 34°34' E 135°24'0 0.0
2014-Jul-13 20:31N 34°34' E 135°24'0 0.0
2014-Jul-13 19:25N 34°34' E 135°24'0 0.0
2014-Jul-13 18:31N 34°34' E 135°24'0 0.0
2014-Jul-13 17:31N 34°34' E 135°24'0 0.0
2014-Jul-13 16:25N 34°34' E 135°24'0 0.0
2014-Jul-13 15:31N 34°34' E 135°24'0 0.0
2014-Jul-13 14:25N 34°34' E 135°24'0 0.0
2014-Jul-13 13:31N 34°34' E 135°24'0 0.0
2014-Jul-13 12:31N 34°34' E 135°24'0 0.0
2014-Jul-13 11:31N 34°34' E 135°24'0 0.0
2014-Jul-13 10:25N 34°34' E 135°24'0 0.0
2014-Jul-13 09:31N 34°34' E 135°24'0 0.0
2014-Jul-13 08:31N 34°34' E 135°24'0 0.0
2014-Jul-13 07:31N 34°34' E 135°24'0 0.0
2014-Jul-13 06:31N 34°34' E 135°24'0 0.0
2014-Jul-13 05:31N 34°34' E 135°24'0 0.0
2014-Jul-13 04:25N 34°34' E 135°24'0 0.0
2014-Jul-13 03:25N 34°34' E 135°24'0 0.0
2014-Jul-13 02:31N 34°34' E 135°24'0 0.0
2014-Jul-13 01:31N 34°34' E 135°24'0 0.0
2014-Jul-13 00:25N 34°34' E 135°24'0 0.0
2014-Jul-12 23:31N 34°34' E 135°24'0 0.0
2014-Jul-12 22:25N 34°34' E 135°24'0 0.0
2014-Jul-12 21:31N 34°34' E 135°24'0 0.0
2014-Jul-12 20:31N 34°34' E 135°24'0 0.0
2014-Jul-12 19:31N 34°34' E 135°24'0 0.0
2014-Jul-12 18:31N 34°34' E 135°24'0 0.0
2014-Jul-12 17:31N 34°34' E 135°24'0 0.0
2014-Jul-12 16:31N 34°34' E 135°24'0 0.0
2014-Jul-12 15:19N 34°34' E 135°24'0 0.0
2014-Jul-12 14:13N 34°34' E 135°24'0 0.0
2014-Jul-12 12:31N 34°34' E 135°24'0 0.0
2014-Jul-12 11:25N 34°34' E 135°24'0 0.0
2014-Jul-12 10:25N 34°34' E 135°24'0 0.0
2014-Jul-12 09:25N 34°34' E 135°24'0 0.0
2014-Jul-12 08:13N 34°34' E 135°24'0 0.0
2014-Jul-12 07:13N 34°34' E 135°24'0 0.0
2014-Jul-12 06:25N 34°34' E 135°24'0 0.0
2014-Jul-12 05:31N 34°34' E 135°24'0 0.0
2014-Jul-12 04:31N 34°34' E 135°24'3 3.5
2014-Jul-12 03:34N 34°34' E 135°20'0 0.2
2014-Jul-12 02:10N 34°34' E 135°20'0 0.1
2014-Jul-12 01:28N 34°34' E 135°20'0 0.0
2014-Jul-12 00:22N 34°34' E 135°20'0 0.0
2014-Jul-11 23:22N 34°34' E 135°20'0 0.0
2014-Jul-11 22:10N 34°34' E 135°20'0 0.0
2014-Jul-11 21:16N 34°34' E 135°20'0 0.0
2014-Jul-11 20:28N 34°34' E 135°20'0 0.0
2014-Jul-11 19:28N 34°34' E 135°20'0 0.0
2014-Jul-11 18:28N 34°34' E 135°20'0 0.2
2014-Jul-11 17:31N 34°34' E 135°20'8 8.8
2014-Jul-11 16:33N 34°29' E 135°12'1313.0
2014-Jul-11 15:33N 34°19' E 135°01'1211.7
2014-Jul-11 14:33N 34°08' E 134°60'  
2014-Jul-07 08:10N 35°07' E 129°21'  

Dump ship's entire track history